createdAt,value
2018-07-04T00:02:33.902Z,3.30
2018-07-04T00:05:09.711Z,3.27
2018-07-04T00:07:50.401Z,3.40
2018-07-04T00:10:30.805Z,3.45
2018-07-04T00:13:11.525Z,3.65
2018-07-04T00:15:52.005Z,3.90
2018-07-04T00:18:32.395Z,4.08
2018-07-04T00:21:14.638Z,3.80
2018-07-04T00:23:55.168Z,3.35
2018-07-04T00:26:36.255Z,3.62
2018-07-04T00:29:16.808Z,3.70
2018-07-04T00:31:57.178Z,3.90
2018-07-04T00:34:38.088Z,3.47
2018-07-04T00:37:12.524Z,3.50
2018-07-04T00:39:53.194Z,3.60
2018-07-04T00:42:36.320Z,4.08
2018-07-04T00:45:16.656Z,3.80
2018-07-04T00:47:57.200Z,4.28
2018-07-04T00:50:37.559Z,3.55
2018-07-04T00:53:18.168Z,4.33
2018-07-04T00:55:58.707Z,4.05
2018-07-04T00:58:39.271Z,4.47
2018-07-04T01:01:20.008Z,4.15
2018-07-04T01:04:00.414Z,4.97
2018-07-04T01:06:41.457Z,4.72
2018-07-04T01:09:21.912Z,4.03
2018-07-04T01:12:03.272Z,4.60
2018-07-04T01:14:45.617Z,4.78
2018-07-04T01:17:26.722Z,3.87
2018-07-04T01:20:07.362Z,3.80
2018-07-04T01:22:48.467Z,4.60
2018-07-04T01:25:29.009Z,4.15
2018-07-04T01:28:10.972Z,5.15
2018-07-04T01:30:51.479Z,5.33
2018-07-04T01:33:34.087Z,4.20
2018-07-04T01:36:14.535Z,4.60
2018-07-04T01:38:55.224Z,4.30
2018-07-04T01:41:35.782Z,4.35
2018-07-04T01:44:17.196Z,4.55
2018-07-04T01:46:57.765Z,4.28
2018-07-04T01:49:38.415Z,4.62
2018-07-04T01:52:18.791Z,4.12
2018-07-04T01:54:59.230Z,5.00
2018-07-04T01:57:40.221Z,4.03
2018-07-04T02:00:20.804Z,4.37
2018-07-04T02:03:03.144Z,4.70
2018-07-04T02:05:44.808Z,4.85
2018-07-04T02:08:25.301Z,5.08
2018-07-04T02:11:06.499Z,5.03
2018-07-04T02:13:47.622Z,4.72
2018-07-04T02:16:28.186Z,4.97
2018-07-04T02:19:08.836Z,4.80
2018-07-04T02:21:49.412Z,4.83
2018-07-04T02:24:29.873Z,4.75
2018-07-04T02:27:10.304Z,5.42
2018-07-04T02:29:51.714Z,5.47
2018-07-04T02:32:34.804Z,5.28
2018-07-04T02:35:20.234Z,5.40
2018-07-04T02:38:01.804Z,4.58
2018-07-04T02:40:42.303Z,5.30
2018-07-04T02:43:22.861Z,5.08
2018-07-04T02:46:03.549Z,5.35
2018-07-04T02:48:44.163Z,5.65
2018-07-04T02:51:24.622Z,4.80
2018-07-04T02:53:59.081Z,5.17
2018-07-04T02:56:39.500Z,5.90
2018-07-04T02:59:19.897Z,5.17
2018-07-04T03:02:00.282Z,5.20
2018-07-04T03:04:40.908Z,5.65
2018-07-04T03:07:22.460Z,5.37
2018-07-04T03:10:03.833Z,6.08
2018-07-04T03:12:48.096Z,5.20
2018-07-04T03:15:28.603Z,5.53
2018-07-04T03:18:09.116Z,6.15
2018-07-04T03:20:53.327Z,5.67
2018-07-04T03:23:34.003Z,6.20
2018-07-04T03:26:14.890Z,5.60
2018-07-04T03:28:55.880Z,5.58
2018-07-04T03:31:38.371Z,5.15
2018-07-04T03:34:22.411Z,5.47
2018-07-04T03:37:03.309Z,6.10
2018-07-04T03:39:44.051Z,5.50
2018-07-04T03:42:24.615Z,5.92
2018-07-04T03:45:05.045Z,6.05
2018-07-04T03:47:45.574Z,5.83
2018-07-04T03:50:26.036Z,5.90
2018-07-04T03:53:06.591Z,6.25
2018-07-04T03:55:47.150Z,6.05
2018-07-04T03:58:27.639Z,5.17
2018-07-04T04:01:08.155Z,6.40
2018-07-04T04:03:49.607Z,6.40
2018-07-04T04:06:29.923Z,5.65
2018-07-04T04:09:10.437Z,5.30
2018-07-04T04:11:51.038Z,5.45
2018-07-04T04:14:32.036Z,5.70
2018-07-04T04:17:15.478Z,6.45
2018-07-04T04:19:57.999Z,7.12
2018-07-04T04:22:32.527Z,6.97
2018-07-04T04:25:14.704Z,6.95
2018-07-04T04:27:55.608Z,6.85
2018-07-04T04:30:39.952Z,7.08
2018-07-04T04:33:20.387Z,6.25
2018-07-04T04:36:01.560Z,6.90
2018-07-04T04:38:42.246Z,6.53
2018-07-04T04:41:24.163Z,6.50
2018-07-04T04:44:04.924Z,7.78
2018-07-04T04:46:45.302Z,6.50
2018-07-04T04:49:25.918Z,6.70
2018-07-04T04:52:07.481Z,6.75
2018-07-04T04:54:48.955Z,7.17
2018-07-04T04:57:29.658Z,7.78
2018-07-04T05:00:10.315Z,7.00
2018-07-04T05:02:45.181Z,7.42
2018-07-04T05:05:25.875Z,7.55
2018-07-04T05:08:07.400Z,7.90
2018-07-04T05:10:47.894Z,7.60
2018-07-04T05:13:28.627Z,7.65
2018-07-04T05:16:09.093Z,7.30
2018-07-04T05:18:50.291Z,7.83
2018-07-04T05:21:31.808Z,6.95
2018-07-04T05:24:12.452Z,6.97
2018-07-04T05:26:53.025Z,7.50
2018-07-04T05:29:34.777Z,7.85
2018-07-04T05:32:19.364Z,8.60
2018-07-04T05:34:59.933Z,7.62
2018-07-04T05:37:41.478Z,8.08
2018-07-04T05:40:21.981Z,8.98
2018-07-04T05:43:03.439Z,8.25
2018-07-04T05:45:44.321Z,7.58
2018-07-04T05:48:24.811Z,7.90
2018-07-04T05:51:05.551Z,7.97
2018-07-04T05:53:47.608Z,8.60
2018-07-04T05:56:28.868Z,8.45
2018-07-04T05:59:09.419Z,8.40
2018-07-04T06:01:50.167Z,8.20
2018-07-04T06:04:30.649Z,7.92
2018-07-04T06:07:11.447Z,8.65
2018-07-04T06:09:52.516Z,8.18
2018-07-04T06:12:33.023Z,7.87
2018-07-04T06:15:14.126Z,8.00
2018-07-04T06:17:56.329Z,8.48
2018-07-04T06:20:36.771Z,8.60
2018-07-04T06:23:18.169Z,8.23
2018-07-04T06:25:58.915Z,9.18
2018-07-04T06:28:40.214Z,9.73
2018-07-04T06:31:20.834Z,8.85
2018-07-04T06:34:01.521Z,9.30
2018-07-04T06:36:42.553Z,9.35
2018-07-04T06:39:10.778Z,8.90
2018-07-04T06:41:39.796Z,9.20
2018-07-04T06:44:08.108Z,8.23
2018-07-04T06:46:37.075Z,8.33
2018-07-04T06:49:05.346Z,8.40
2018-07-04T06:51:34.805Z,9.78
2018-07-04T06:54:03.272Z,7.72
2018-07-04T06:56:33.068Z,8.25
2018-07-04T06:59:01.384Z,7.62
2018-07-04T07:01:29.584Z,7.45
2018-07-04T07:04:11.139Z,8.05
2018-07-04T07:06:51.816Z,7.85
2018-07-04T07:09:32.603Z,7.90
2018-07-04T07:12:14.033Z,6.97
2018-07-04T07:14:54.688Z,8.13
2018-07-04T07:17:35.467Z,7.72
2018-07-04T07:20:15.957Z,7.35
2018-07-04T07:22:56.458Z,7.08
2018-07-04T07:25:41.355Z,8.20
2018-07-04T07:28:23.919Z,7.28
2018-07-04T07:31:04.667Z,6.45
2018-07-04T07:33:46.801Z,7.33
2018-07-04T07:36:28.251Z,7.05
2018-07-04T07:39:09.745Z,6.78
2018-07-04T07:41:50.570Z,7.70
2018-07-04T07:44:31.077Z,7.08
2018-07-04T07:47:12.174Z,8.43
2018-07-04T07:49:53.869Z,7.12
2018-07-04T07:52:34.511Z,7.30
2018-07-04T07:55:15.576Z,5.95
2018-07-04T07:57:56.144Z,7.20
2018-07-04T08:00:30.968Z,5.87
2018-07-04T08:03:15.646Z,5.90
2018-07-04T08:05:56.197Z,6.33
2018-07-04T08:08:36.807Z,7.40
2018-07-04T08:11:17.503Z,6.60
2018-07-04T08:13:58.252Z,5.85
2018-07-04T08:16:38.979Z,6.75
2018-07-04T08:19:20.514Z,6.22
2018-07-04T08:22:02.113Z,6.50
2018-07-04T08:24:44.532Z,5.37
2018-07-04T08:27:26.175Z,6.25
2018-07-04T08:30:09.168Z,5.62
2018-07-04T08:32:50.648Z,4.92
2018-07-04T08:35:34.897Z,4.92
2018-07-04T08:38:19.531Z,4.70
2018-07-04T08:41:00.402Z,5.20
2018-07-04T08:43:40.827Z,5.03
2018-07-04T08:46:22.096Z,4.85
2018-07-04T08:49:02.814Z,4.65
2018-07-04T08:51:43.770Z,4.60
2018-07-04T08:54:24.652Z,4.33
2018-07-04T08:57:06.318Z,5.35
2018-07-04T08:59:47.661Z,5.15
2018-07-04T09:02:28.351Z,4.30
2018-07-04T09:05:08.829Z,5.47
2018-07-04T09:07:49.820Z,4.90
2018-07-04T09:10:31.408Z,4.10
2018-07-04T09:13:12.600Z,4.50
2018-07-04T09:15:53.937Z,4.80
2018-07-04T09:18:34.816Z,5.30
2018-07-04T09:21:15.462Z,4.92
2018-07-04T09:23:56.766Z,5.10
2018-07-04T09:26:37.588Z,4.30
2018-07-04T09:29:18.493Z,4.25
2018-07-04T09:31:59.211Z,4.42
2018-07-04T09:34:39.778Z,4.25
2018-07-04T09:37:20.981Z,5.45
2018-07-04T09:40:01.404Z,3.90
2018-07-04T09:42:45.620Z,4.70
2018-07-04T09:45:26.560Z,5.20
2018-07-04T09:48:10.996Z,4.60
2018-07-04T09:50:56.577Z,5.00
2018-07-04T09:53:37.531Z,4.72
2018-07-04T09:56:19.242Z,5.67
2018-07-04T09:59:00.375Z,5.20
2018-07-04T10:01:42.187Z,4.90
2018-07-04T10:04:24.318Z,5.20
2018-07-04T10:07:04.812Z,5.47
2018-07-04T10:09:47.130Z,4.70
2018-07-04T10:12:28.609Z,5.22
2018-07-04T10:15:09.335Z,5.47
2018-07-04T10:17:49.996Z,5.28
2018-07-04T10:20:30.409Z,4.78
2018-07-04T10:23:10.993Z,5.00
2018-07-04T10:25:56.865Z,5.37
2018-07-04T10:28:38.159Z,5.20
2018-07-04T10:31:18.972Z,4.92
2018-07-04T10:33:59.693Z,4.83
2018-07-04T10:36:40.127Z,5.60
2018-07-04T10:39:22.968Z,4.78
2018-07-04T10:42:03.746Z,4.42
2018-07-04T10:44:44.644Z,3.83
2018-07-04T10:47:25.247Z,2.85
2018-07-04T10:50:05.678Z,2.70
2018-07-04T10:52:46.524Z,2.40
2018-07-04T10:55:27.034Z,2.75
2018-07-04T10:58:07.456Z,2.90
2018-07-04T11:00:49.362Z,2.37
2018-07-04T11:03:29.978Z,2.52
2018-07-04T11:06:10.543Z,3.22
2018-07-04T11:08:52.239Z,3.45
2018-07-04T11:11:33.614Z,2.85
2018-07-04T11:14:15.717Z,3.47
2018-07-04T11:16:56.440Z,3.45
2018-07-04T11:19:37.024Z,2.98
2018-07-04T11:22:25.341Z,3.70
2018-07-04T11:25:06.051Z,3.20
2018-07-04T11:27:46.796Z,2.87
2018-07-04T11:30:27.724Z,3.30
2018-07-04T11:33:09.293Z,3.40
2018-07-04T11:35:50.719Z,3.40
2018-07-04T11:38:32.205Z,3.05
2018-07-04T11:41:13.020Z,2.90
2018-07-04T11:43:55.018Z,3.22
2018-07-04T11:46:23.252Z,3.10
2018-07-04T11:48:51.454Z,3.40
2018-07-04T11:51:21.951Z,3.50
2018-07-04T11:53:50.815Z,2.58
2018-07-04T11:56:19.050Z,3.77
2018-07-04T11:58:50.007Z,4.17
2018-07-04T12:01:18.149Z,3.85
2018-07-04T12:03:59.155Z,3.25
2018-07-04T12:06:40.580Z,3.12
2018-07-04T12:09:09.272Z,3.17
2018-07-04T12:11:38.391Z,2.98
2018-07-04T12:14:07.582Z,3.67
2018-07-04T12:16:35.658Z,3.25
2018-07-04T12:19:03.791Z,3.72
2018-07-04T12:21:32.492Z,3.67
2018-07-04T12:24:00.684Z,3.30
2018-07-04T12:26:28.788Z,2.98
2018-07-04T12:28:58.793Z,3.58
2018-07-04T12:31:26.894Z,3.12
2018-07-04T12:33:55.275Z,3.00
2018-07-04T12:36:23.485Z,3.40
2018-07-04T12:38:54.798Z,3.27
2018-07-04T12:41:25.505Z,3.60
2018-07-04T12:43:54.638Z,3.30
2018-07-04T12:46:22.744Z,3.22
2018-07-04T12:48:54.384Z,3.02
2018-07-04T12:51:24.237Z,3.20
2018-07-04T12:53:55.129Z,3.27
2018-07-04T12:56:40.916Z,3.02
2018-07-04T12:59:22.307Z,3.00
2018-07-04T13:02:04.896Z,3.50
2018-07-04T13:04:46.096Z,2.98
2018-07-04T13:07:26.958Z,3.58
2018-07-04T13:10:08.939Z,3.30
2018-07-04T13:12:50.154Z,3.37
2018-07-04T13:15:30.673Z,2.98
2018-07-04T13:18:11.410Z,3.25
2018-07-04T13:20:51.840Z,3.12
2018-07-04T13:23:32.431Z,2.80
2018-07-04T13:26:12.962Z,3.35
2018-07-04T13:28:53.771Z,3.27
2018-07-04T13:31:35.115Z,3.05
2018-07-04T13:34:15.895Z,3.08
2018-07-04T13:36:59.156Z,3.15
2018-07-04T13:39:39.844Z,3.00
2018-07-04T13:42:22.229Z,3.65
2018-07-04T13:45:03.088Z,3.55
2018-07-04T13:47:43.802Z,4.28
2018-07-04T13:50:24.306Z,3.52
2018-07-04T13:53:05.058Z,3.90
2018-07-04T13:55:45.483Z,3.65
2018-07-04T13:58:26.341Z,3.83
2018-07-04T14:01:08.748Z,3.80
2018-07-04T14:03:50.624Z,4.03
2018-07-04T14:06:31.225Z,3.90
2018-07-04T14:09:11.656Z,3.77
2018-07-04T14:11:52.143Z,3.70
2018-07-04T14:14:33.736Z,3.33
2018-07-04T14:17:14.329Z,4.05
2018-07-04T14:19:54.843Z,3.83
2018-07-04T14:22:35.495Z,3.98
2018-07-04T14:25:16.090Z,4.30
2018-07-04T14:27:56.488Z,4.65
2018-07-04T14:30:37.015Z,4.30
2018-07-04T14:33:17.616Z,3.62
2018-07-04T14:35:59.082Z,3.60
2018-07-04T14:38:40.726Z,3.67
2018-07-04T14:41:21.264Z,4.30
2018-07-04T14:44:02.223Z,3.55
2018-07-04T14:46:42.603Z,4.28
2018-07-04T14:49:27.614Z,3.65
2018-07-04T14:52:09.140Z,3.98
2018-07-04T14:54:49.559Z,4.05
2018-07-04T14:57:30.724Z,3.92
2018-07-04T15:00:12.942Z,4.10
2018-07-04T15:02:53.292Z,4.50
2018-07-04T15:05:38.484Z,4.92
2018-07-04T15:08:19.085Z,4.97
2018-07-04T15:10:59.787Z,4.65
2018-07-04T15:13:42.633Z,4.47
2018-07-04T15:16:25.550Z,4.90
2018-07-04T15:19:06.439Z,4.70
2018-07-04T15:21:48.740Z,4.35
2018-07-04T15:24:29.314Z,5.12
2018-07-04T15:27:12.783Z,5.03
2018-07-04T15:29:55.150Z,4.72
2018-07-04T15:32:38.202Z,5.58
2018-07-04T15:38:10.726Z,5.28
2018-07-04T15:40:51.031Z,5.08
2018-07-04T15:43:35.523Z,5.45
2018-07-04T15:46:16.662Z,5.70
2018-07-04T15:48:57.193Z,5.45
2018-07-04T15:51:37.876Z,5.87
2018-07-04T15:54:18.441Z,5.53
2018-07-04T15:56:59.001Z,5.70
2018-07-04T15:59:42.276Z,5.97
2018-07-04T16:02:23.327Z,6.42
2018-07-04T16:05:03.963Z,5.90
2018-07-04T16:07:44.930Z,5.78
2018-07-04T16:10:25.445Z,5.55
2018-07-04T16:13:06.115Z,5.05
2018-07-04T16:15:47.019Z,6.10
2018-07-04T16:18:27.432Z,5.15
2018-07-04T16:21:08.066Z,5.35
2018-07-04T16:23:49.161Z,5.33
2018-07-04T16:26:30.239Z,5.70
2018-07-04T16:29:04.698Z,5.30
2018-07-04T16:31:45.248Z,5.67
2018-07-04T16:34:25.961Z,6.05
2018-07-04T16:37:06.391Z,5.47
2018-07-04T16:39:47.060Z,6.03
2018-07-04T16:42:27.768Z,5.80
2018-07-04T16:45:11.835Z,5.70
2018-07-04T16:47:52.243Z,6.03
2018-07-04T16:50:33.293Z,5.95
2018-07-04T16:53:15.192Z,5.90
2018-07-04T16:55:55.592Z,6.37
2018-07-04T16:58:38.492Z,6.00
2018-07-04T17:01:19.760Z,5.65
2018-07-04T17:04:02.044Z,6.22
2018-07-04T17:06:42.731Z,6.42
2018-07-04T17:09:23.308Z,6.17
2018-07-04T17:12:03.995Z,6.62
2018-07-04T17:14:45.377Z,6.40
2018-07-04T17:17:26.283Z,6.05
2018-07-04T17:20:07.132Z,6.72
2018-07-04T17:22:47.832Z,6.20
2018-07-04T17:25:28.604Z,6.75
2018-07-04T17:28:09.386Z,6.97
2018-07-04T17:30:51.213Z,6.85
2018-07-04T17:33:34.650Z,6.53
2018-07-04T17:36:16.130Z,6.92
2018-07-04T17:38:58.354Z,7.83
2018-07-04T17:41:43.587Z,6.87
2018-07-04T17:44:24.616Z,6.67
2018-07-04T17:47:05.256Z,7.22
2018-07-04T17:49:50.762Z,7.25
2018-07-04T17:52:32.444Z,7.60
2018-07-04T17:55:13.278Z,7.30
2018-07-04T17:57:54.267Z,7.17
2018-07-04T18:00:35.772Z,6.90
2018-07-04T18:03:16.536Z,6.75
2018-07-04T18:05:57.919Z,7.30
2018-07-04T18:08:39.415Z,6.95
2018-07-04T18:11:19.955Z,6.95
2018-07-04T18:14:00.446Z,6.90
2018-07-04T18:16:43.834Z,7.10
2018-07-04T18:19:24.174Z,7.33
2018-07-04T18:22:04.781Z,7.08
2018-07-04T18:24:45.256Z,6.90
2018-07-04T18:27:25.783Z,6.47
2018-07-04T18:30:06.938Z,7.10
2018-07-04T18:32:47.580Z,6.35
2018-07-04T18:35:28.672Z,7.25
2018-07-04T18:38:11.216Z,6.97
2018-07-04T18:40:52.719Z,6.80
2018-07-04T18:43:33.871Z,7.40
2018-07-04T18:46:19.451Z,6.00
2018-07-04T18:48:59.888Z,6.92
2018-07-04T18:51:41.365Z,6.85
2018-07-04T18:54:21.784Z,7.05
2018-07-04T18:57:02.403Z,6.70
2018-07-04T18:59:42.972Z,7.22
2018-07-04T19:02:23.696Z,7.08
2018-07-04T19:05:04.201Z,6.28
2018-07-04T19:07:44.865Z,6.12
2018-07-04T19:10:25.818Z,6.78
2018-07-04T19:13:09.805Z,7.25
2018-07-04T19:15:53.324Z,6.40
2018-07-04T19:18:33.999Z,6.47
2018-07-04T19:21:14.750Z,7.22
2018-07-04T19:23:58.767Z,7.08
2018-07-04T19:26:40.114Z,7.17
2018-07-04T19:29:24.577Z,6.85
2018-07-04T19:32:13.392Z,6.15
2018-07-04T19:34:54.640Z,7.50
2018-07-04T19:37:35.808Z,6.50
2018-07-04T19:40:20.577Z,7.25
2018-07-04T19:43:01.253Z,7.20
2018-07-04T19:45:46.916Z,7.62
2018-07-04T19:48:32.392Z,7.20
2018-07-04T19:51:13.368Z,7.72
2018-07-04T19:53:55.792Z,7.17
2018-07-04T19:56:38.202Z,7.00
2018-07-04T19:59:24.267Z,7.03
2018-07-04T20:02:05.056Z,7.12
2018-07-04T20:04:45.470Z,7.28
2018-07-04T20:07:32.280Z,6.92
2018-07-04T20:10:14.157Z,6.80
2018-07-04T20:12:54.740Z,7.40
2018-07-04T20:15:35.513Z,7.03
2018-07-04T20:18:16.779Z,7.10
2018-07-04T20:20:58.889Z,7.75
2018-07-04T20:23:39.943Z,6.55
2018-07-04T20:26:20.505Z,7.70
2018-07-04T20:29:02.319Z,6.47
2018-07-04T20:31:42.771Z,7.00
2018-07-04T20:34:23.581Z,7.17
2018-07-04T20:37:04.932Z,7.15
2018-07-04T20:39:51.624Z,6.70
2018-07-04T20:42:33.161Z,7.10
2018-07-04T20:45:17.459Z,7.03
2018-07-04T20:47:57.925Z,6.92
2018-07-04T20:50:38.458Z,7.05
2018-07-04T20:53:19.137Z,6.87
2018-07-04T20:55:59.698Z,6.70
2018-07-04T20:58:34.885Z,6.65
2018-07-04T21:01:15.943Z,7.20
2018-07-04T21:03:57.679Z,6.65
2018-07-04T21:06:38.818Z,6.05
2018-07-04T21:09:19.183Z,6.90
2018-07-04T21:11:59.820Z,6.50
2018-07-04T21:14:43.458Z,6.42
2018-07-04T21:17:23.880Z,6.90
2018-07-04T21:20:04.479Z,7.05
2018-07-04T21:22:46.218Z,6.50
2018-07-04T21:25:26.765Z,7.35
2018-07-04T21:28:11.932Z,7.72
2018-07-04T21:30:56.772Z,6.95
2018-07-04T21:33:38.611Z,7.70
2018-07-04T21:36:23.634Z,8.15
2018-07-04T21:39:04.681Z,7.60
2018-07-04T21:41:45.484Z,7.33
2018-07-04T21:44:25.822Z,7.58
2018-07-04T21:47:10.706Z,7.45
2018-07-04T21:49:51.205Z,7.50
2018-07-04T21:52:32.051Z,7.72
2018-07-04T21:55:13.319Z,7.28
2018-07-04T21:57:54.778Z,7.92
2018-07-04T22:00:35.688Z,7.20
2018-07-04T22:03:16.361Z,7.15
2018-07-04T22:05:57.131Z,7.50
2018-07-04T22:08:37.608Z,8.20
2018-07-04T22:11:22.156Z,8.50
2018-07-04T22:14:02.682Z,8.28
2018-07-04T22:16:43.280Z,8.00
2018-07-04T22:19:23.964Z,8.35
2018-07-04T22:22:04.576Z,7.50
2018-07-04T22:24:49.013Z,7.65
2018-07-04T22:30:17.773Z,6.53
2018-07-04T22:32:59.081Z,7.65
2018-07-04T22:35:40.238Z,8.20
2018-07-04T22:38:22.694Z,8.80
2018-07-04T22:41:03.381Z,8.73
2018-07-04T22:43:45.703Z,7.70
2018-07-04T22:46:28.380Z,8.25
2018-07-04T22:49:08.975Z,9.50
2018-07-04T22:51:49.868Z,7.60
2018-07-04T22:54:30.355Z,7.25
2018-07-04T22:57:16.200Z,7.92
2018-07-04T22:59:58.174Z,7.80
2018-07-04T23:02:42.360Z,8.18
2018-07-04T23:05:23.711Z,8.18
2018-07-04T23:08:04.660Z,8.45
2018-07-04T23:10:45.240Z,9.00
2018-07-04T23:13:25.994Z,8.48
2018-07-04T23:16:07.264Z,8.58
2018-07-04T23:18:47.672Z,8.95
2018-07-04T23:21:28.137Z,9.98
2018-07-04T23:24:08.941Z,9.55
2018-07-04T23:26:51.135Z,9.60
2018-07-04T23:29:37.686Z,9.63
2018-07-04T23:32:19.872Z,9.73
2018-07-04T23:35:00.604Z,9.90
2018-07-04T23:37:42.562Z,9.20
2018-07-04T23:40:23.335Z,9.13
2018-07-04T23:43:03.894Z,10.18
2018-07-04T23:45:44.898Z,10.08
2018-07-04T23:48:26.158Z,9.85
2018-07-04T23:51:07.043Z,9.28
2018-07-04T23:53:47.622Z,8.68
2018-07-04T23:56:28.167Z,9.23
2018-07-04T23:59:10.972Z,9.55
